sensor_id;sensor_type;location;lat;lon;timestamp;temperature;humidity
3794;DHT22;1912;51.358;12.282;2023-02-17T04:45:25;8.20;1.00
3794;DHT22;1912;51.358;12.282;2023-02-17T04:47:51;8.20;1.00
3794;DHT22;1912;51.358;12.282;2023-02-17T04:50:16;8.20;1.00
3794;DHT22;1912;51.358;12.282;2023-02-17T04:52:42;8.30;1.00
3794;DHT22;1912;51.358;12.282;2023-02-17T04:55:08;8.30;1.00
3794;DHT22;1912;51.358;12.282;2023-02-17T04:57:34;8.30;1.00
3794;DHT22;1912;51.358;12.282;2023-02-17T05:00:00;8.30;1.00
3794;DHT22;1912;51.358;12.282;2023-02-17T05:02:26;8.30;1.00
3794;DHT22;1912;51.358;12.282;2023-02-17T05:04:53;8.30;1.00
3794;DHT22;1912;51.358;12.282;2023-02-17T05:07:19;8.30;1.00
3794;DHT22;1912;51.358;12.282;2023-02-17T05:09:45;8.30;1.00
3794;DHT22;1912;51.358;12.282;2023-02-17T05:12:10;8.30;1.00
3794;DHT22;1912;51.358;12.282;2023-02-17T05:14:36;8.40;1.00
3794;DHT22;1912;51.358;12.282;2023-02-17T05:17:02;8.30;1.00
3794;DHT22;1912;51.358;12.282;2023-02-17T05:19:28;8.30;1.00
3794;DHT22;1912;51.358;12.282;2023-02-17T05:21:53;8.30;1.00
3794;DHT22;1912;51.358;12.282;2023-02-17T05:24:19;8.40;1.00
3794;DHT22;1912;51.358;12.282;2023-02-17T05:26:45;8.40;1.00
3794;DHT22;1912;51.358;12.282;2023-02-17T05:29:10;8.40;1.00
3794;DHT22;1912;51.358;12.282;2023-02-17T05:31:36;8.40;1.00
3794;DHT22;1912;51.358;12.282;2023-02-17T05:34:02;8.50;1.00
3794;DHT22;1912;51.358;12.282;2023-02-17T05:36:28;8.50;1.00
3794;DHT22;1912;51.358;12.282;2023-02-17T05:38:53;8.50;1.00
3794;DHT22;1912;51.358;12.282;2023-02-17T05:41:19;8.50;1.00
3794;DHT22;1912;51.358;12.282;2023-02-17T05:43:45;8.50;1.00
3794;DHT22;1912;51.358;12.282;2023-02-17T05:46:11;8.50;1.00
3794;DHT22;1912;51.358;12.282;2023-02-17T05:48:37;8.50;1.00
3794;DHT22;1912;51.358;12.282;2023-02-17T05:51:03;8.60;1.00
3794;DHT22;1912;51.358;12.282;2023-02-17T05:53:29;8.60;1.00
3794;DHT22;1912;51.358;12.282;2023-02-17T05:55:55;8.60;1.00
3794;DHT22;1912;51.358;12.282;2023-02-17T05:58:21;8.60;1.00
3794;DHT22;1912;51.358;12.282;2023-02-17T06:00:47;8.70;1.00
3794;DHT22;1912;51.358;12.282;2023-02-17T06:03:12;8.70;1.00
3794;DHT22;1912;51.358;12.282;2023-02-17T06:05:38;8.80;1.00
3794;DHT22;1912;51.358;12.282;2023-02-17T06:08:04;8.80;1.00
3794;DHT22;1912;51.358;12.282;2023-02-17T06:10:30;8.90;1.00
3794;DHT22;1912;51.358;12.282;2023-02-17T06:12:56;8.90;1.00
3794;DHT22;1912;51.358;12.282;2023-02-17T06:15:21;8.90;1.00
3794;DHT22;1912;51.358;12.282;2023-02-17T06:17:47;9.00;1.00
3794;DHT22;1912;51.358;12.282;2023-02-17T06:20:13;9.00;1.00
3794;DHT22;1912;51.358;12.282;2023-02-17T06:22:39;9.10;1.00
3794;DHT22;1912;51.358;12.282;2023-02-17T06:25:06;9.10;1.00
3794;DHT22;1912;51.358;12.282;2023-02-17T06:27:31;9.10;1.00
3794;DHT22;1912;51.358;12.282;2023-02-17T06:29:57;9.10;1.00
3794;DHT22;1912;51.358;12.282;2023-02-17T06:32:22;9.00;1.00
3794;DHT22;1912;51.358;12.282;2023-02-17T06:34:48;9.00;1.00
3794;DHT22;1912;51.358;12.282;2023-02-17T06:37:14;9.00;1.00
3794;DHT22;1912;51.358;12.282;2023-02-17T06:39:39;9.00;1.00
3794;DHT22;1912;51.358;12.282;2023-02-17T06:42:05;9.00;1.00
3794;DHT22;1912;51.358;12.282;2023-02-17T06:44:31;9.10;1.00
3794;DHT22;1912;51.358;12.282;2023-02-17T06:46:56;9.10;1.00
3794;DHT22;1912;51.358;12.282;2023-02-17T06:49:23;9.10;1.00
3794;DHT22;1912;51.358;12.282;2023-02-17T06:51:50;9.10;1.00
3794;DHT22;1912;51.358;12.282;2023-02-17T06:54:15;9.10;1.00
3794;DHT22;1912;51.358;12.282;2023-02-17T06:56:41;9.10;1.00
3794;DHT22;1912;51.358;12.282;2023-02-17T06:59:07;9.20;1.00
3794;DHT22;1912;51.358;12.282;2023-02-17T07:01:33;9.20;1.00
3794;DHT22;1912;51.358;12.282;2023-02-17T07:03:58;9.20;1.00
3794;DHT22;1912;51.358;12.282;2023-02-17T07:06:25;9.20;1.00
3794;DHT22;1912;51.358;12.282;2023-02-17T07:08:51;9.30;1.00
3794;DHT22;1912;51.358;12.282;2023-02-17T07:11:17;9.30;1.00
3794;DHT22;1912;51.358;12.282;2023-02-17T07:13:43;9.30;1.00
3794;DHT22;1912;51.358;12.282;2023-02-17T07:16:10;9.30;1.00
3794;DHT22;1912;51.358;12.282;2023-02-17T07:18:37;9.30;1.00
3794;DHT22;1912;51.358;12.282;2023-02-17T07:21:07;9.40;1.00
3794;DHT22;1912;51.358;12.282;2023-02-17T07:23:35;9.40;1.00
3794;DHT22;1912;51.358;12.282;2023-02-17T07:26:06;9.40;1.00
3794;DHT22;1912;51.358;12.282;2023-02-17T07:28:34;9.40;1.00
3794;DHT22;1912;51.358;12.282;2023-02-17T07:31:08;9.40;1.00
3794;DHT22;1912;51.358;12.282;2023-02-17T07:33:35;9.40;1.00
3794;DHT22;1912;51.358;12.282;2023-02-17T07:36:09;9.40;1.00
3794;DHT22;1912;51.358;12.282;2023-02-17T07:38:38;9.40;1.00
3794;DHT22;1912;51.358;12.282;2023-02-17T07:41:09;9.40;1.00
3794;DHT22;1912;51.358;12.282;2023-02-17T07:43:37;9.30;1.00
3794;DHT22;1912;51.358;12.282;2023-02-17T07:46:03;9.40;1.00
3794;DHT22;1912;51.358;12.282;2023-02-17T07:48:30;9.40;1.00
3794;DHT22;1912;51.358;12.282;2023-02-17T07:50:56;9.40;1.00
3794;DHT22;1912;51.358;12.282;2023-02-17T07:53:28;9.40;1.00
3794;DHT22;1912;51.358;12.282;2023-02-17T07:55:54;9.40;1.00
3794;DHT22;1912;51.358;12.282;2023-02-17T07:58:20;9.50;1.00
3794;DHT22;1912;51.358;12.282;2023-02-17T08:00:45;9.50;1.00
3794;DHT22;1912;51.358;12.282;2023-02-17T08:03:11;9.50;1.00
3794;DHT22;1912;51.358;12.282;2023-02-17T08:05:38;9.50;1.00
3794;DHT22;1912;51.358;12.282;2023-02-17T08:08:05;9.50;1.00
3794;DHT22;1912;51.358;12.282;2023-02-17T08:10:49;9.50;1.00
3794;DHT22;1912;51.358;12.282;2023-02-17T08:13:33;9.50;1.00
3794;DHT22;1912;51.358;12.282;2023-02-17T08:15:58;9.60;1.00
3794;DHT22;1912;51.358;12.282;2023-02-17T08:18:24;9.60;1.00
3794;DHT22;1912;51.358;12.282;2023-02-17T08:20:50;9.50;1.00
3794;DHT22;1912;51.358;12.282;2023-02-17T08:23:15;9.50;1.00
3794;DHT22;1912;51.358;12.282;2023-02-17T08:25:41;9.60;1.00
3794;DHT22;1912;51.358;12.282;2023-02-17T08:28:07;9.50;1.00
3794;DHT22;1912;51.358;12.282;2023-02-17T08:30:35;9.50;1.00
3794;DHT22;1912;51.358;12.282;2023-02-17T08:33:03;9.60;1.00
3794;DHT22;1912;51.358;12.282;2023-02-17T08:35:29;9.60;1.00
3794;DHT22;1912;51.358;12.282;2023-02-17T08:37:55;9.70;1.00
3794;DHT22;1912;51.358;12.282;2023-02-17T08:40:21;9.70;1.00
3794;DHT22;1912;51.358;12.282;2023-02-17T08:42:46;9.70;1.00
3794;DHT22;1912;51.358;12.282;2023-02-17T08:45:14;9.80;1.00
3794;DHT22;1912;51.358;12.282;2023-02-17T08:47:40;9.80;1.00
3794;DHT22;1912;51.358;12.282;2023-02-17T08:50:07;9.80;1.00
3794;DHT22;1912;51.358;12.282;2023-02-17T08:52:34;9.90;1.00
3794;DHT22;1912;51.358;12.282;2023-02-17T08:55:01;9.90;1.00
3794;DHT22;1912;51.358;12.282;2023-02-17T08:57:26;10.00;1.00
3794;DHT22;1912;51.358;12.282;2023-02-17T08:59:52;10.00;1.00
3794;DHT22;1912;51.358;12.282;2023-02-17T09:02:18;10.00;1.00
3794;DHT22;1912;51.358;12.282;2023-02-17T09:04:45;10.00;1.00
3794;DHT22;1912;51.358;12.282;2023-02-17T09:07:12;10.00;1.00
3794;DHT22;1912;51.358;12.282;2023-02-17T09:09:39;10.00;1.00
3794;DHT22;1912;51.358;12.282;2023-02-17T09:12:06;10.00;1.00
3794;DHT22;1912;51.358;12.282;2023-02-17T09:14:33;10.10;1.00
3794;DHT22;1912;51.358;12.282;2023-02-17T09:16:59;10.10;1.00
3794;DHT22;1912;51.358;12.282;2023-02-17T09:19:25;10.10;1.00
3794;DHT22;1912;51.358;12.282;2023-02-17T09:21:50;10.10;1.00
3794;DHT22;1912;51.358;12.282;2023-02-17T09:24:17;10.20;1.00
3794;DHT22;1912;51.358;12.282;2023-02-17T09:26:42;10.30;1.00
3794;DHT22;1912;51.358;12.282;2023-02-17T09:29:08;10.30;1.00
3794;DHT22;1912;51.358;12.282;2023-02-17T09:31:35;10.40;1.00
3794;DHT22;1912;51.358;12.282;2023-02-17T09:34:02;10.50;1.00
3794;DHT22;1912;51.358;12.282;2023-02-17T09:36:30;10.50;1.00
3794;DHT22;1912;51.358;12.282;2023-02-17T09:38:58;10.50;1.00
3794;DHT22;1912;51.358;12.282;2023-02-17T09:41:38;10.60;1.00
3794;DHT22;1912;51.358;12.282;2023-02-17T09:44:15;10.60;1.00
3794;DHT22;1912;51.358;12.282;2023-02-17T09:46:47;10.70;1.00
3794;DHT22;1912;51.358;12.282;2023-02-17T09:49:23;10.80;1.00
3794;DHT22;1912;51.358;12.282;2023-02-17T09:52:21;10.80;1.00
3794;DHT22;1912;51.358;12.282;2023-02-17T09:54:54;10.80;1.00
3794;DHT22;1912;51.358;12.282;2023-02-17T09:57:27;10.70;1.00
3794;DHT22;1912;51.358;12.282;2023-02-17T09:59:59;10.80;1.00
3794;DHT22;1912;51.358;12.282;2023-02-17T10:02:45;10.80;1.00
3794;DHT22;1912;51.358;12.282;2023-02-17T10:05:19;10.80;1.00
3794;DHT22;1912;51.358;12.282;2023-02-17T10:07:54;10.80;1.00
3794;DHT22;1912;51.358;12.282;2023-02-17T10:10:34;10.80;1.00
3794;DHT22;1912;51.358;12.282;2023-02-17T10:13:05;10.70;1.00
3794;DHT22;1912;51.358;12.282;2023-02-17T10:15:38;10.80;1.00
3794;DHT22;1912;51.358;12.282;2023-02-17T10:18:14;10.80;1.00
3794;DHT22;1912;51.358;12.282;2023-02-17T10:21:09;10.80;1.00
3794;DHT22;1912;51.358;12.282;2023-02-17T10:23:37;10.60;1.00
3794;DHT22;1912;51.358;12.282;2023-02-17T10:29:30;10.60;1.00
3794;DHT22;1912;51.358;12.282;2023-02-17T10:35:15;10.80;1.00
3794;DHT22;1912;51.358;12.282;2023-02-17T10:37:47;10.80;1.00
3794;DHT22;1912;51.358;12.282;2023-02-17T10:40:23;10.90;1.00
3794;DHT22;1912;51.358;12.282;2023-02-17T10:42:53;11.00;1.00
3794;DHT22;1912;51.358;12.282;2023-02-17T10:45:34;11.00;1.00
3794;DHT22;1912;51.358;12.282;2023-02-17T10:48:08;11.10;1.00
3794;DHT22;1912;51.358;12.282;2023-02-17T10:50:40;11.20;1.00
3794;DHT22;1912;51.358;12.282;2023-02-17T10:53:21;11.20;1.00
3794;DHT22;1912;51.358;12.282;2023-02-17T10:55:56;11.30;1.00
3794;DHT22;1912;51.358;12.282;2023-02-17T11:01:11;11.30;1.00
3794;DHT22;1912;51.358;12.282;2023-02-17T11:03:37;11.40;1.00
3794;DHT22;1912;51.358;12.282;2023-02-17T11:06:15;11.40;1.00
3794;DHT22;1912;51.358;12.282;2023-02-17T11:08:53;11.40;1.00
3794;DHT22;1912;51.358;12.282;2023-02-17T11:11:27;11.50;1.00
3794;DHT22;1912;51.358;12.282;2023-02-17T11:13:57;11.50;1.00
3794;DHT22;1912;51.358;12.282;2023-02-17T11:19:23;11.60;1.00
3794;DHT22;1912;51.358;12.282;2023-02-17T11:21:53;11.60;1.00
3794;DHT22;1912;51.358;12.282;2023-02-17T11:24:20;11.60;1.00
3794;DHT22;1912;51.358;12.282;2023-02-17T11:27:09;11.50;1.00
3794;DHT22;1912;51.358;12.282;2023-02-17T11:29:35;11.60;1.00
3794;DHT22;1912;51.358;12.282;2023-02-17T11:32:05;11.50;1.00
3794;DHT22;1912;51.358;12.282;2023-02-17T11:34:35;11.70;1.00
3794;DHT22;1912;51.358;12.282;2023-02-17T11:37:20;11.70;1.00
3794;DHT22;1912;51.358;12.282;2023-02-17T11:39:51;11.70;1.00
3794;DHT22;1912;51.358;12.282;2023-02-17T11:42:28;11.80;1.00
3794;DHT22;1912;51.358;12.282;2023-02-17T11:44:57;11.80;1.00
3794;DHT22;1912;51.358;12.282;2023-02-17T11:50:27;11.90;1.00
3794;DHT22;1912;51.358;12.282;2023-02-17T11:53:22;12.00;1.00
3794;DHT22;1912;51.358;12.282;2023-02-17T11:56:16;12.10;1.00
3794;DHT22;1912;51.358;12.282;2023-02-17T11:59:26;12.10;1.00
3794;DHT22;1912;51.358;12.282;2023-02-17T12:02:13;12.10;1.00
3794;DHT22;1912;51.358;12.282;2023-02-17T12:04:51;12.20;1.00
3794;DHT22;1912;51.358;12.282;2023-02-17T12:13:37;12.20;1.00
3794;DHT22;1912;51.358;12.282;2023-02-17T12:16:23;12.20;1.00
3794;DHT22;1912;51.358;12.282;2023-02-17T12:19:30;12.30;1.00
3794;DHT22;1912;51.358;12.282;2023-02-17T12:28:27;12.40;1.00
3794;DHT22;1912;51.358;12.282;2023-02-17T12:34:11;12.40;1.00
3794;DHT22;1912;51.358;12.282;2023-02-17T12:36:42;12.40;1.00
3794;DHT22;1912;51.358;12.282;2023-02-17T12:39:17;12.30;1.00
3794;DHT22;1912;51.358;12.282;2023-02-17T12:41:58;12.40;1.00
3794;DHT22;1912;51.358;12.282;2023-02-17T12:44:34;12.40;1.00
3794;DHT22;1912;51.358;12.282;2023-02-17T12:47:11;12.30;1.00
3794;DHT22;1912;51.358;12.282;2023-02-17T12:49:54;12.30;1.00
3794;DHT22;1912;51.358;12.282;2023-02-17T12:52:37;12.30;1.00
3794;DHT22;1912;51.358;12.282;2023-02-17T12:55:12;12.30;1.00
3794;DHT22;1912;51.358;12.282;2023-02-17T12:57:48;12.30;1.00
3794;DHT22;1912;51.358;12.282;2023-02-17T13:03:04;12.20;1.00
3794;DHT22;1912;51.358;12.282;2023-02-17T13:05:40;12.30;1.00
3794;DHT22;1912;51.358;12.282;2023-02-17T13:08:32;12.30;1.00
3794;DHT22;1912;51.358;12.282;2023-02-17T13:11:12;12.30;1.00
3794;DHT22;1912;51.358;12.282;2023-02-17T13:13:50;12.30;1.00
3794;DHT22;1912;51.358;12.282;2023-02-17T13:16:15;12.30;1.00
3794;DHT22;1912;51.358;12.282;2023-02-17T13:18:43;12.40;1.00
3794;DHT22;1912;51.358;12.282;2023-02-17T13:21:26;12.40;1.00
3794;DHT22;1912;51.358;12.282;2023-02-17T13:24:12;12.40;1.00
3794;DHT22;1912;51.358;12.282;2023-02-17T13:26:44;12.50;1.00
3794;DHT22;1912;51.358;12.282;2023-02-17T13:31:55;12.50;1.00
3794;DHT22;1912;51.358;12.282;2023-02-17T13:34:27;12.50;1.00
3794;DHT22;1912;51.358;12.282;2023-02-17T13:36:53;12.50;1.00
3794;DHT22;1912;51.358;12.282;2023-02-17T13:41:52;12.60;1.00
3794;DHT22;1912;51.358;12.282;2023-02-17T13:44:28;12.60;1.00
3794;DHT22;1912;51.358;12.282;2023-02-17T13:47:15;12.60;1.00
3794;DHT22;1912;51.358;12.282;2023-02-17T13:49:54;12.60;1.00
3794;DHT22;1912;51.358;12.282;2023-02-17T13:52:24;12.70;1.00
3794;DHT22;1912;51.358;12.282;2023-02-17T13:55:00;12.80;1.00
3794;DHT22;1912;51.358;12.282;2023-02-17T13:57:32;12.80;1.00
3794;DHT22;1912;51.358;12.282;2023-02-17T14:00:25;12.90;1.00
3794;DHT22;1912;51.358;12.282;2023-02-17T14:02:58;12.90;1.00
3794;DHT22;1912;51.358;12.282;2023-02-17T14:05:39;13.00;1.00
3794;DHT22;1912;51.358;12.282;2023-02-17T14:08:18;13.00;1.00
3794;DHT22;1912;51.358;12.282;2023-02-17T14:10:47;13.10;1.00
3794;DHT22;1912;51.358;12.282;2023-02-17T14:13:13;13.10;1.00
3794;DHT22;1912;51.358;12.282;2023-02-17T14:15:57;13.10;1.00
3794;DHT22;1912;51.358;12.282;2023-02-17T14:18:33;13.20;1.00
3794;DHT22;1912;51.358;12.282;2023-02-17T14:21:07;13.20;1.00
3794;DHT22;1912;51.358;12.282;2023-02-17T14:23:49;13.30;1.00
3794;DHT22;1912;51.358;12.282;2023-02-17T14:26:34;13.50;1.00
3794;DHT22;1912;51.358;12.282;2023-02-17T14:29:10;13.60;1.00
3794;DHT22;1912;51.358;12.282;2023-02-17T14:31:44;13.80;1.00
3794;DHT22;1912;51.358;12.282;2023-02-17T14:34:24;13.80;1.00
3794;DHT22;1912;51.358;12.282;2023-02-17T14:36:52;13.80;1.00
3794;DHT22;1912;51.358;12.282;2023-02-17T14:39:17;14.00;1.00
3794;DHT22;1912;51.358;12.282;2023-02-17T14:41:43;14.00;1.00
3794;DHT22;1912;51.358;12.282;2023-02-17T14:44:09;14.00;1.00
3794;DHT22;1912;51.358;12.282;2023-02-17T14:46:35;14.10;1.00
3794;DHT22;1912;51.358;12.282;2023-02-17T14:49:01;14.00;1.00
3794;DHT22;1912;51.358;12.282;2023-02-17T14:51:35;14.00;1.00
3794;DHT22;1912;51.358;12.282;2023-02-17T14:54:10;14.00;1.00
3794;DHT22;1912;51.358;12.282;2023-02-17T14:59:20;14.00;1.00
3794;DHT22;1912;51.358;12.282;2023-02-17T15:01:46;13.90;1.00
3794;DHT22;1912;51.358;12.282;2023-02-17T15:04:11;13.90;1.00
3794;DHT22;1912;51.358;12.282;2023-02-17T15:06:40;13.90;1.00
3794;DHT22;1912;51.358;12.282;2023-02-17T15:09:16;13.80;1.00
3794;DHT22;1912;51.358;12.282;2023-02-17T15:11:45;13.80;1.00
3794;DHT22;1912;51.358;12.282;2023-02-17T15:14:18;13.80;1.00
3794;DHT22;1912;51.358;12.282;2023-02-17T15:16:45;13.80;1.00
3794;DHT22;1912;51.358;12.282;2023-02-17T15:19:14;13.80;1.00
3794;DHT22;1912;51.358;12.282;2023-02-17T15:21:47;13.90;1.00
3794;DHT22;1912;51.358;12.282;2023-02-17T15:24:16;13.90;1.00
3794;DHT22;1912;51.358;12.282;2023-02-17T15:26:43;13.90;1.00
3794;DHT22;1912;51.358;12.282;2023-02-17T15:29:21;13.90;1.00
3794;DHT22;1912;51.358;12.282;2023-02-17T15:31:49;13.90;1.00
3794;DHT22;1912;51.358;12.282;2023-02-17T15:34:18;13.90;1.00
3794;DHT22;1912;51.358;12.282;2023-02-17T15:36:45;13.80;1.00
3794;DHT22;1912;51.358;12.282;2023-02-17T15:39:13;13.90;1.00
3794;DHT22;1912;51.358;12.282;2023-02-17T15:41:43;13.90;1.00
3794;DHT22;1912;51.358;12.282;2023-02-17T15:44:16;13.90;1.00
3794;DHT22;1912;51.358;12.282;2023-02-17T15:46:54;13.90;1.00
3794;DHT22;1912;51.358;12.282;2023-02-17T15:49:20;13.90;1.00
3794;DHT22;1912;51.358;12.282;2023-02-17T15:51:46;13.90;1.00
3794;DHT22;1912;51.358;12.282;2023-02-17T15:54:12;13.90;1.00
3794;DHT22;1912;51.358;12.282;2023-02-17T15:56:43;13.80;1.00
3794;DHT22;1912;51.358;12.282;2023-02-17T15:59:18;13.80;1.00
3794;DHT22;1912;51.358;12.282;2023-02-17T16:01:46;13.90;1.00
3794;DHT22;1912;51.358;12.282;2023-02-17T16:04:13;13.80;1.00
3794;DHT22;1912;51.358;12.282;2023-02-17T16:06:39;13.90;1.00
3794;DHT22;1912;51.358;12.282;2023-02-17T16:09:05;13.80;1.00
3794;DHT22;1912;51.358;12.282;2023-02-17T16:11:32;13.80;1.00
3794;DHT22;1912;51.358;12.282;2023-02-17T16:35:17;13.70;1.00
3794;DHT22;1912;51.358;12.282;2023-02-17T16:37:59;13.70;1.00
3794;DHT22;1912;51.358;12.282;2023-02-17T16:40:29;13.70;1.00
3794;DHT22;1912;51.358;12.282;2023-02-17T16:42:56;13.70;1.00
3794;DHT22;1912;51.358;12.282;2023-02-17T16:45:25;13.60;1.00
3794;DHT22;1912;51.358;12.282;2023-02-17T16:47:54;13.40;1.00
3794;DHT22;1912;51.358;12.282;2023-02-17T16:50:24;13.10;1.00
3794;DHT22;1912;51.358;12.282;2023-02-17T16:52:53;12.80;1.00
3794;DHT22;1912;51.358;12.282;2023-02-17T16:55:22;12.60;1.00
3794;DHT22;1912;51.358;12.282;2023-02-17T16:57:49;12.30;1.00
3794;DHT22;1912;51.358;12.282;2023-02-17T17:00:18;12.10;1.00
3794;DHT22;1912;51.358;12.282;2023-02-17T17:02:46;11.90;1.00
3794;DHT22;1912;51.358;12.282;2023-02-17T17:05:13;11.70;1.00
3794;DHT22;1912;51.358;12.282;2023-02-17T17:07:40;11.60;1.00
3794;DHT22;1912;51.358;12.282;2023-02-17T17:10:10;11.60;1.00
3794;DHT22;1912;51.358;12.282;2023-02-17T17:12:39;11.50;1.00
3794;DHT22;1912;51.358;12.282;2023-02-17T17:15:06;11.50;1.00
3794;DHT22;1912;51.358;12.282;2023-02-17T17:17:37;11.50;1.00
3794;DHT22;1912;51.358;12.282;2023-02-17T17:20:06;11.50;1.00
3794;DHT22;1912;51.358;12.282;2023-02-17T17:22:35;11.50;1.00
3794;DHT22;1912;51.358;12.282;2023-02-17T17:25:00;11.50;1.00
3794;DHT22;1912;51.358;12.282;2023-02-17T17:27:26;11.40;1.00
3794;DHT22;1912;51.358;12.282;2023-02-17T17:29:52;11.40;1.00
3794;DHT22;1912;51.358;12.282;2023-02-17T17:32:17;11.40;1.00
3794;DHT22;1912;51.358;12.282;2023-02-17T17:34:43;11.40;1.00
3794;DHT22;1912;51.358;12.282;2023-02-17T17:37:09;11.40;1.00
3794;DHT22;1912;51.358;12.282;2023-02-17T17:39:35;11.40;1.00
3794;DHT22;1912;51.358;12.282;2023-02-17T17:42:00;11.40;1.00
3794;DHT22;1912;51.358;12.282;2023-02-17T17:44:26;11.50;1.00
3794;DHT22;1912;51.358;12.282;2023-02-17T17:46:53;11.50;1.00
3794;DHT22;1912;51.358;12.282;2023-02-17T17:49:18;11.50;1.00
3794;DHT22;1912;51.358;12.282;2023-02-17T17:51:44;11.50;1.00
3794;DHT22;1912;51.358;12.282;2023-02-17T17:54:10;11.50;1.00
3794;DHT22;1912;51.358;12.282;2023-02-17T17:56:39;11.60;1.00
3794;DHT22;1912;51.358;12.282;2023-02-17T17:59:10;11.60;1.00
3794;DHT22;1912;51.358;12.282;2023-02-17T18:01:36;11.60;1.00
3794;DHT22;1912;51.358;12.282;2023-02-17T18:04:03;11.60;1.00
3794;DHT22;1912;51.358;12.282;2023-02-17T18:06:34;11.70;1.00
3794;DHT22;1912;51.358;12.282;2023-02-17T18:09:04;11.70;1.00
3794;DHT22;1912;51.358;12.282;2023-02-17T18:11:32;11.80;1.00
3794;DHT22;1912;51.358;12.282;2023-02-17T18:14:01;11.80;1.00
3794;DHT22;1912;51.358;12.282;2023-02-17T18:16:29;11.80;1.00
3794;DHT22;1912;51.358;12.282;2023-02-17T18:18:57;11.90;1.00
3794;DHT22;1912;51.358;12.282;2023-02-17T18:21:24;11.90;1.00
3794;DHT22;1912;51.358;12.282;2023-02-17T18:23:49;11.90;1.00
3794;DHT22;1912;51.358;12.282;2023-02-17T18:26:15;11.90;1.00
3794;DHT22;1912;51.358;12.282;2023-02-17T18:28:41;11.90;1.00
3794;DHT22;1912;51.358;12.282;2023-02-17T18:31:09;11.80;1.00
3794;DHT22;1912;51.358;12.282;2023-02-17T18:33:36;11.90;1.00
3794;DHT22;1912;51.358;12.282;2023-02-17T18:36:14;11.90;1.00
3794;DHT22;1912;51.358;12.282;2023-02-17T18:38:44;11.80;1.00
3794;DHT22;1912;51.358;12.282;2023-02-17T18:41:23;11.80;1.00
3794;DHT22;1912;51.358;12.282;2023-02-17T18:43:51;11.80;1.00
3794;DHT22;1912;51.358;12.282;2023-02-17T18:46:17;11.80;1.00
3794;DHT22;1912;51.358;12.282;2023-02-17T18:48:43;11.80;1.00
3794;DHT22;1912;51.358;12.282;2023-02-17T18:51:10;11.70;1.00
3794;DHT22;1912;51.358;12.282;2023-02-17T18:53:38;11.70;1.00
3794;DHT22;1912;51.358;12.282;2023-02-17T18:56:10;11.70;1.00
3794;DHT22;1912;51.358;12.282;2023-02-17T18:58:37;11.70;1.00
3794;DHT22;1912;51.358;12.282;2023-02-17T19:01:04;11.70;1.00
3794;DHT22;1912;51.358;12.282;2023-02-17T19:03:30;11.60;1.00
3794;DHT22;1912;51.358;12.282;2023-02-17T19:05:55;11.60;1.00
3794;DHT22;1912;51.358;12.282;2023-02-17T19:08:21;11.60;1.00
3794;DHT22;1912;51.358;12.282;2023-02-17T19:10:48;11.60;1.00
3794;DHT22;1912;51.358;12.282;2023-02-17T19:13:15;11.60;1.00
3794;DHT22;1912;51.358;12.282;2023-02-17T19:15:40;11.60;1.00
3794;DHT22;1912;51.358;12.282;2023-02-17T19:18:06;11.60;1.00
3794;DHT22;1912;51.358;12.282;2023-02-17T19:20:32;11.50;1.00
3794;DHT22;1912;51.358;12.282;2023-02-17T19:22:58;11.40;1.00
3794;DHT22;1912;51.358;12.282;2023-02-17T19:25:24;11.50;1.00
3794;DHT22;1912;51.358;12.282;2023-02-17T19:27:49;11.40;1.00
3794;DHT22;1912;51.358;12.282;2023-02-17T19:30:15;11.40;1.00
3794;DHT22;1912;51.358;12.282;2023-02-17T19:32:41;11.30;1.00
3794;DHT22;1912;51.358;12.282;2023-02-17T19:35:07;11.30;1.00
3794;DHT22;1912;51.358;12.282;2023-02-17T19:37:33;11.20;1.00
3794;DHT22;1912;51.358;12.282;2023-02-17T19:39:59;11.20;1.00
3794;DHT22;1912;51.358;12.282;2023-02-17T19:42:25;11.20;1.00
3794;DHT22;1912;51.358;12.282;2023-02-17T19:44:51;11.20;1.00
3794;DHT22;1912;51.358;12.282;2023-02-17T19:47:16;11.30;1.00
3794;DHT22;1912;51.358;12.282;2023-02-17T19:49:42;11.30;1.00
3794;DHT22;1912;51.358;12.282;2023-02-17T19:52:08;11.30;1.00
3794;DHT22;1912;51.358;12.282;2023-02-17T19:54:34;11.30;1.00
3794;DHT22;1912;51.358;12.282;2023-02-17T19:57:00;11.20;1.00
3794;DHT22;1912;51.358;12.282;2023-02-17T19:59:25;11.20;1.00
3794;DHT22;1912;51.358;12.282;2023-02-17T20:01:51;11.30;1.00
3794;DHT22;1912;51.358;12.282;2023-02-17T20:04:17;11.40;1.00
3794;DHT22;1912;51.358;12.282;2023-02-17T20:06:45;11.40;1.00
3794;DHT22;1912;51.358;12.282;2023-02-17T20:09:17;11.50;1.00
3794;DHT22;1912;51.358;12.282;2023-02-17T20:11:48;11.60;1.00
3794;DHT22;1912;51.358;12.282;2023-02-17T20:14:14;11.60;1.00
3794;DHT22;1912;51.358;12.282;2023-02-17T20:16:40;11.60;1.00
3794;DHT22;1912;51.358;12.282;2023-02-17T20:19:06;11.70;1.00
3794;DHT22;1912;51.358;12.282;2023-02-17T20:21:34;11.80;1.00
3794;DHT22;1912;51.358;12.282;2023-02-17T20:24:01;11.80;1.00
3794;DHT22;1912;51.358;12.282;2023-02-17T20:26:29;11.90;1.00
3794;DHT22;1912;51.358;12.282;2023-02-17T20:28:57;11.80;1.00
3794;DHT22;1912;51.358;12.282;2023-02-17T20:31:24;11.80;1.00
3794;DHT22;1912;51.358;12.282;2023-02-17T20:33:50;11.80;1.00
3794;DHT22;1912;51.358;12.282;2023-02-17T20:36:17;11.80;1.00
3794;DHT22;1912;51.358;12.282;2023-02-17T20:38:43;11.80;1.00
3794;DHT22;1912;51.358;12.282;2023-02-17T20:41:13;11.70;1.00
3794;DHT22;1912;51.358;12.282;2023-02-17T20:43:41;11.70;1.00
3794;DHT22;1912;51.358;12.282;2023-02-17T20:46:11;11.70;1.00
3794;DHT22;1912;51.358;12.282;2023-02-17T20:48:38;11.70;1.00
3794;DHT22;1912;51.358;12.282;2023-02-17T20:51:04;11.60;1.00
3794;DHT22;1912;51.358;12.282;2023-02-17T20:53:30;11.60;1.00
3794;DHT22;1912;51.358;12.282;2023-02-17T20:55:55;11.60;1.00
3794;DHT22;1912;51.358;12.282;2023-02-17T20:58:21;11.50;1.00
3794;DHT22;1912;51.358;12.282;2023-02-17T21:00:47;11.30;1.00
3794;DHT22;1912;51.358;12.282;2023-02-17T21:03:12;11.20;1.00
3794;DHT22;1912;51.358;12.282;2023-02-17T21:05:38;11.00;1.00
3794;DHT22;1912;51.358;12.282;2023-02-17T21:08:04;10.80;1.00
3794;DHT22;1912;51.358;12.282;2023-02-17T21:10:30;10.70;1.00
3794;DHT22;1912;51.358;12.282;2023-02-17T21:12:56;10.60;1.00
3794;DHT22;1912;51.358;12.282;2023-02-17T21:15:23;10.50;1.00
3794;DHT22;1912;51.358;12.282;2023-02-17T21:17:49;10.30;1.00
3794;DHT22;1912;51.358;12.282;2023-02-17T21:20:17;10.10;1.00
3794;DHT22;1912;51.358;12.282;2023-02-17T21:22:44;10.00;1.00
3794;DHT22;1912;51.358;12.282;2023-02-17T21:25:10;9.80;1.00
3794;DHT22;1912;51.358;12.282;2023-02-17T21:27:36;9.80;1.00
3794;DHT22;1912;51.358;12.282;2023-02-17T21:30:04;9.70;1.00
3794;DHT22;1912;51.358;12.282;2023-02-17T21:32:30;9.60;1.00
3794;DHT22;1912;51.358;12.282;2023-02-17T21:34:56;9.60;1.00
3794;DHT22;1912;51.358;12.282;2023-02-17T21:37:22;9.60;1.00
3794;DHT22;1912;51.358;12.282;2023-02-17T21:39:47;9.50;1.00
3794;DHT22;1912;51.358;12.282;2023-02-17T21:42:13;9.50;1.00
3794;DHT22;1912;51.358;12.282;2023-02-17T21:44:39;9.50;1.00
3794;DHT22;1912;51.358;12.282;2023-02-17T21:47:20;9.50;1.00
3794;DHT22;1912;51.358;12.282;2023-02-17T21:49:46;9.40;1.00
3794;DHT22;1912;51.358;12.282;2023-02-17T21:52:13;9.40;1.00
3794;DHT22;1912;51.358;12.282;2023-02-17T21:54:39;9.40;1.00
3794;DHT22;1912;51.358;12.282;2023-02-17T21:57:05;9.40;1.00
3794;DHT22;1912;51.358;12.282;2023-02-17T21:59:31;9.40;1.00
